Ashland, Wisconsin
Current Conditions -  °F | °C
As of 7:53 AM on Monday 24 Nov 2014 (Local Time) from KASX Reporting Station
Light Snow Light Snow  
Wind Chill: -4°   Ceiling: 700
Heat Index:   Visibility: 1mi
Dew Point:   Wind: 8mph
Humidity: 100%   Direction: 320°NW
Pressure: 29.2"   Gusts: NA
Location:  46.59°N, 90.89°W
Report Text: KASX 241353Z AUTO 32007KT 1SM -SN BR OVC007 00/00 A2920 RMK AO2 SLP898 P0007 T00000000
Loading
Personal Weather Stations






























Interactive Weather Map New forecast layout! Learn more

10-Day Weather Forecast

Advertisements
Track Severe Weather on mobile